Time;durP1;ratioP1;P1;durP2;ratioP2;P2;SDS_P1;SDS_P2;PMS_P1;PMS_P2;Temp;Humidity;BMP_temperature;BMP_pressure;BME280_temperature;BME280_humidity;BME280_pressure;Samples;Min_cycle;Max_cycle;Signal;HPM_P1;HPM_P2
2022/03/08 00:00:35;;;;;;;23.43;12.23;;;-2.90;99.90;;;;;;5036058;28;20949;-85
2022/03/08 00:03:02;;;;;;;28.70;13.07;;;0.10;99.90;;;;;;5034979;28;20194;-84
2022/03/08 00:05:28;;;;;;;23.73;12.18;;;-3.00;99.90;;;;;;5033936;28;20192;-81
2022/03/08 00:07:54;;;;;;;26.67;14.13;;;-3.10;99.90;;;;;;5037520;28;20196;-82
2022/03/08 00:10:20;;;;;;;25.20;13.20;;;-3.20;99.90;;;;;;5046900;28;20189;-87
2022/03/08 00:12:47;;;;;;;19.70;11.95;;;-3.20;99.90;;;;;;5034657;28;20200;-82
2022/03/08 00:15:15;;;;;;;24.52;12.40;;;-3.20;99.90;;;;;;5033887;28;20166;-84
2022/03/08 00:17:41;;;;;;;25.15;12.30;;;-3.30;99.90;;;;;;5037931;28;20212;-83
2022/03/08 00:20:08;;;;;;;24.67;13.27;;;-3.30;99.90;;;;;;5033140;28;20188;-85
2022/03/08 00:22:38;;;;;;;19.95;11.23;;;-3.40;99.90;;;;;;5029693;28;20700;-81
2022/03/08 00:25:05;;;;;;;23.92;12.10;;;-3.60;99.90;;;;;;5031580;28;20823;-82
2022/03/08 00:27:31;;;;;;;23.25;12.88;;;-3.60;99.90;;;;;;5027749;28;20198;-85
2022/03/08 00:29:57;;;;;;;25.47;12.13;;;-3.60;99.90;;;;;;5046673;28;20190;-85
2022/03/08 00:32:24;;;;;;;22.55;12.15;;;-3.60;99.90;;;;;;5049806;28;20488;-83
2022/03/08 00:34:49;;;;;;;22.35;13.40;;;-3.60;99.90;;;;;;5033758;28;20201;-84
2022/03/08 00:37:15;;;;;;;24.03;12.53;;;-3.60;99.90;;;;;;5048882;28;20429;-85
2022/03/08 00:39:40;;;;;;;22.37;11.37;;;-3.60;99.90;;;;;;5036247;28;20263;-86
2022/03/08 00:42:11;;;;;;;24.17;14.03;;;-3.70;99.90;;;;;;5032437;28;20190;-82
2022/03/08 00:44:38;;;;;;;22.17;10.63;;;-3.80;99.90;;;;;;5030519;28;20719;-85
2022/03/08 00:47:04;;;;;;;25.42;11.75;;;-3.80;99.90;;;;;;5040561;28;20188;-81
2022/03/08 00:49:30;;;;;;;21.95;12.73;;;-3.80;99.90;;;;;;5048824;28;20301;-85
2022/03/08 00:51:55;;;;;;;19.13;12.13;;;-3.70;99.90;;;;;;5033573;28;20828;-86
2022/03/08 00:54:21;;;;;;;19.27;10.80;;;-3.60;99.90;;;;;;5048801;28;20235;-85
2022/03/08 00:56:46;;;;;;;20.13;11.80;;;-3.60;99.90;;;;;;5038140;28;20733;-84
2022/03/08 00:59:12;;;;;;;19.93;11.33;;;-3.70;99.90;;;;;;5032198;28;20261;-84
2022/03/08 01:01:37;;;;;;;22.80;12.40;;;-3.80;99.90;;;;;;5029536;28;20228;-87
2022/03/08 01:04:03;;;;;;;21.03;11.13;;;-3.80;99.90;;;;;;5045472;28;20184;-85
2022/03/08 01:06:29;;;;;;;26.03;13.90;;;-3.70;99.90;;;;;;5031448;28;21157;-82
2022/03/08 01:08:55;;;;;;;18.30;10.13;;;-3.70;99.90;;;;;;5043178;28;20192;-85
2022/03/08 01:11:20;;;;;;;21.37;12.37;;;-3.80;99.90;;;;;;5046649;28;20284;-83
2022/03/08 01:13:46;;;;;;;20.53;12.23;;;-3.50;99.90;;;;;;5032706;28;20618;-86
2022/03/08 01:16:12;;;;;;;19.87;12.10;;;;;;;;;;5030165;28;20205;-83
2022/03/08 01:18:37;;;;;;;31.90;13.63;;;-3.40;99.90;;;;;;5026313;28;20616;-83
2022/03/08 01:21:03;;;;;;;19.87;10.20;;;-3.40;99.90;;;;;;5047974;28;21015;-84
2022/03/08 01:23:29;;;;;;;23.33;12.83;;;-3.60;99.90;;;;;;5049810;28;20185;-84
2022/03/08 01:25:55;;;;;;;23.33;12.75;;;-3.60;99.90;;;;;;5033967;28;20204;-85
2022/03/08 01:28:20;;;;;;;25.23;12.03;;;-3.70;99.90;;;;;;5038036;28;20302;-84
2022/03/08 01:30:46;;;;;;;23.83;11.77;;;-3.70;99.90;;;;;;5039904;28;20181;-86
2022/03/08 01:33:12;;;;;;;19.30;12.10;;;-3.80;99.90;;;;;;5044273;28;20550;-87
2022/03/08 01:35:38;;;;;;;21.47;12.00;;;;;;;;;;5051739;28;20185;-87
2022/03/08 01:38:03;;;;;;;22.20;10.50;;;-3.80;99.90;;;;;;5040676;28;20173;-88
2022/03/08 01:40:29;;;;;;;23.17;10.40;;;-3.80;99.90;;;;;;5038884;28;20476;-86
2022/03/08 01:42:54;;;;;;;24.77;11.87;;;-3.90;99.90;;;;;;5058038;28;20268;-85
2022/03/08 01:45:23;;;;;;;21.70;9.50;;;-4.00;99.90;;;;;;5061108;28;20181;-85
2022/03/08 01:47:49;;;;;;;20.42;11.07;;;-3.90;99.90;;;;;;5049477;28;20219;-86
2022/03/08 01:50:17;;;;;;;20.35;9.20;;;-3.80;99.90;;;;;;5043696;28;20173;-87
2022/03/08 01:52:43;;;;;;;20.67;10.65;;;-3.60;99.90;;;;;;5039755;28;20201;-86
2022/03/08 01:55:11;;;;;;;19.95;10.98;;;-3.60;99.90;;;;;;5043654;28;20181;-86
2022/03/08 01:57:37;;;;;;;21.05;10.27;;;;;;;;;;5045812;28;20200;-86
2022/03/08 02:00:07;;;;;;;22.25;11.05;;;-4.10;99.90;;;;;;5037538;28;20177;-86
2022/03/08 02:02:33;;;;;;;15.85;9.90;;;-4.10;99.90;;;;;;5059242;28;20201;-84
2022/03/08 02:04:58;;;;;;;21.83;12.30;;;-4.20;99.90;;;;;;5044563;28;20223;-86
2022/03/08 02:07:24;;;;;;;24.53;11.07;;;-4.30;99.90;;;;;;5045130;28;20228;-85
2022/03/08 02:09:50;;;;;;;19.23;11.73;;;-4.40;99.90;;;;;;5027536;28;20638;-86
2022/03/08 02:12:15;;;;;;;20.23;10.70;;;-4.30;99.90;;;;;;5061885;28;20270;-85
2022/03/08 02:14:42;;;;;;;21.30;12.10;;;-4.40;99.90;;;;;;5041815;28;20240;-84
2022/03/08 02:17:08;;;;;;;21.92;12.27;;;-4.40;99.90;;;;;;5049791;28;20202;-83
2022/03/08 02:19:33;;;;;;;23.23;11.60;;;-4.40;99.90;;;;;;5037280;28;20173;-86
2022/03/08 02:21:59;;;;;;;20.40;11.70;;;-4.40;99.90;;;;;;5040003;28;20220;-87
2022/03/08 02:24:24;;;;;;;23.50;12.27;;;-4.40;99.90;;;;;;5035455;28;20200;-85
2022/03/08 02:26:51;;;;;;;29.03;14.40;;;-4.20;99.90;;;;;;5038178;28;20191;-86
2022/03/08 02:29:17;;;;;;;24.08;12.93;;;-4.20;99.90;;;;;;5044262;28;20192;-86
2022/03/08 02:31:42;;;;;;;21.80;11.83;;;-4.10;99.90;;;;;;5040933;28;20204;-86
2022/03/08 02:34:08;;;;;;;15.77;10.10;;;-3.90;99.90;;;;;;5044996;28;20241;-85
2022/03/08 02:36:34;;;;;;;20.03;10.97;;;-3.90;99.90;;;;;;5054296;28;20282;-86
2022/03/08 02:38:59;;;;;;;20.93;12.43;;;-4.00;99.90;;;;;;5038422;28;20178;-86
2022/03/08 02:41:25;;;;;;;20.50;11.40;;;-4.10;99.90;;;;;;5042584;28;20893;-86
2022/03/08 02:43:51;;;;;;;21.07;11.93;;;-4.20;99.90;;;;;;5039322;28;20178;-85
2022/03/08 02:46:16;;;;;;;23.38;12.05;;;-4.20;99.90;;;;;;5040581;28;20673;-86
2022/03/08 02:48:42;;;;;;;23.13;12.23;;;-4.30;99.90;;;;;;5031189;28;20178;-85
2022/03/08 02:51:08;;;;;;;20.57;10.77;;;;;;;;;;5051406;28;20269;-87
2022/03/08 02:53:33;;;;;;;19.57;10.00;;;-4.30;99.90;;;;;;5052411;28;20154;-86
2022/03/08 02:55:59;;;;;;;24.37;11.03;;;-4.30;99.90;;;;;;5037533;28;20494;-86
2022/03/08 02:58:25;;;;;;;18.67;10.80;;;-4.00;99.90;;;;;;5044932;28;20177;-86
2022/03/08 03:00:50;;;;;;;25.53;12.13;;;-4.40;99.90;;;;;;5046277;28;20177;-86
2022/03/08 03:03:16;;;;;;;20.07;9.77;;;-4.40;99.90;;;;;;5046564;28;20260;-86
2022/03/08 03:05:42;;;;;;;19.52;10.20;;;-4.50;99.90;;;;;;5046327;28;20195;-88
2022/03/08 03:08:08;;;;;;;21.67;10.83;;;-4.50;99.90;;;;;;5045704;28;20213;-84
2022/03/08 03:10:34;;;;;;;17.40;9.98;;;-4.50;99.90;;;;;;5045902;28;20173;-88
2022/03/08 03:13:00;;;;;;;19.30;12.00;;;-4.50;99.90;;;;;;5062360;28;20185;-87
2022/03/08 03:15:28;;;;;;;16.87;9.27;;;-4.50;99.90;;;;;;5063235;28;20161;-88
2022/03/08 03:17:54;;;;;;;16.48;8.93;;;-4.80;99.90;;;;;;5044012;28;20463;-84
2022/03/08 03:20:21;;;;;;;24.90;11.93;;;-4.60;99.90;;;;;;5052741;28;20562;-87
2022/03/08 03:22:47;;;;;;;21.98;10.88;;;-4.70;99.90;;;;;;5052076;28;20438;-86
2022/03/08 03:25:14;;;;;;;23.65;12.20;;;-4.70;99.90;;;;;;5052492;28;20182;-86
2022/03/08 03:27:41;;;;;;;27.42;12.20;;;-4.70;99.90;;;;;;5055525;28;20185;-85
2022/03/08 03:30:10;;;;;;;16.30;9.35;;;-4.70;99.90;;;;;;5046993;28;20205;-85
2022/03/08 03:32:36;;;;;;;19.58;9.85;;;-4.70;99.90;;;;;;5060381;28;20204;-88
2022/03/08 03:35:03;;;;;;;28.60;10.90;;;-4.70;99.90;;;;;;5049939;28;20255;-86
2022/03/08 03:37:29;;;;;;;25.17;11.43;;;-4.70;99.90;;;;;;5049668;28;20684;-86
2022/03/08 03:39:55;;;;;;;17.20;10.27;;;-4.80;99.90;;;;;;5046008;28;20178;-88
2022/03/08 03:42:20;;;;;;;26.13;10.73;;;-4.70;99.90;;;;;;5036100;28;20190;-85
2022/03/08 03:44:46;;;;;;;19.07;9.87;;;-4.70;99.90;;;;;;5049962;28;20181;-87
2022/03/08 03:47:11;;;;;;;19.73;10.70;;;-4.80;99.90;;;;;;5047080;28;20260;-85
2022/03/08 03:49:37;;;;;;;17.00;11.10;;;-4.80;99.90;;;;;;5066126;28;20180;-85
2022/03/08 03:52:04;;;;;;;16.90;9.03;;;-4.80;99.90;;;;;;5046763;28;20207;-85
2022/03/08 03:54:29;;;;;;;18.92;10.48;;;-4.80;99.90;;;;;;5063337;28;20192;-87
2022/03/08 03:56:55;;;;;;;18.00;9.57;;;-4.80;99.90;;;;;;5063231;28;20201;-85
2022/03/08 03:59:21;;;;;;;13.37;7.10;;;-4.80;99.90;;;;;;5057395;28;20515;-86
2022/03/08 04:01:46;;;;;;;21.50;10.20;;;-4.80;99.90;;;;;;5035511;28;20197;-85
2022/03/08 04:04:12;;;;;;;25.37;14.40;;;-4.80;99.90;;;;;;5036817;28;20701;-84
2022/03/08 04:06:38;;;;;;;20.00;10.63;;;-4.80;99.90;;;;;;5039332;28;20671;-84
2022/03/08 04:09:04;;;;;;;16.07;8.30;;;-4.70;99.90;;;;;;5056667;28;20193;-85
2022/03/08 04:11:31;;;;;;;25.42;10.07;;;;;;;;;;5032847;28;20232;-85
2022/03/08 04:13:57;;;;;;;18.42;9.75;;;;;;;;;;5036326;28;20190;-84
2022/03/08 04:16:22;;;;;;;14.10;8.35;;;-4.80;99.90;;;;;;5036431;28;20201;-85
2022/03/08 04:18:48;;;;;;;10.53;6.47;;;-4.80;99.90;;;;;;5043149;28;20172;-84
2022/03/08 04:21:13;;;;;;;17.83;9.83;;;-4.80;99.90;;;;;;5061427;28;20194;-87
2022/03/08 04:23:39;;;;;;;20.80;9.27;;;-4.90;99.90;;;;;;5048817;28;20196;-88
2022/03/08 04:26:06;;;;;;;18.83;9.00;;;-4.80;99.90;;;;;;5065817;28;20169;-87
2022/03/08 04:28:31;;;;;;;20.27;10.00;;;-4.80;99.90;;;;;;5051032;28;20176;-88
2022/03/08 04:30:57;;;;;;;16.37;8.50;;;-4.80;99.90;;;;;;5052579;28;20192;-88
2022/03/08 04:33:22;;;;;;;17.37;9.27;;;-4.80;99.90;;;;;;5052445;28;20181;-88
2022/03/08 04:35:49;;;;;;;19.80;10.27;;;;;;;;;;5053175;28;20204;-88
2022/03/08 04:38:15;;;;;;;15.75;8.88;;;;;;;;;;5048186;28;20408;-88
2022/03/08 04:40:40;;;;;;;23.48;11.93;;;-4.60;99.90;;;;;;5044558;28;20177;-85
2022/03/08 04:43:06;;;;;;;18.63;9.60;;;;;;;;;;5058100;28;20189;-86
2022/03/08 04:45:32;;;;;;;25.33;10.25;;;-4.70;99.90;;;;;;5060486;28;20193;-85
2022/03/08 04:47:58;;;;;;;24.33;11.90;;;-4.60;99.90;;;;;;5042367;28;20180;-86
2022/03/08 04:50:24;;;;;;;23.33;10.33;;;-4.60;99.90;;;;;;5059109;28;20431;-87
2022/03/08 04:52:50;;;;;;;18.73;9.30;;;;;;;;;;5057550;28;20252;-86
2022/03/08 04:55:18;;;;;;;21.15;11.20;;;-4.60;99.90;;;;;;5041826;28;20185;-87
2022/03/08 04:57:44;;;;;;;19.30;11.52;;;-4.60;99.90;;;;;;5038860;28;20790;-86
2022/03/08 05:00:13;;;;;;;21.35;10.73;;;-4.50;99.90;;;;;;5042490;28;20299;-85
2022/03/08 05:02:41;;;;;;;18.42;10.82;;;-4.40;99.90;;;;;;5041997;28;20197;-85
2022/03/08 05:05:08;;;;;;;24.88;11.15;;;-4.30;99.90;;;;;;5046124;28;20208;-86
2022/03/08 05:07:38;;;;;;;19.75;10.38;;;-4.10;99.90;;;;;;5040910;28;20173;-86
2022/03/08 05:10:05;;;;;;;18.13;10.68;;;-4.00;99.90;;;;;;5042702;28;20177;-86
2022/03/08 05:12:31;;;;;;;16.05;9.77;;;-3.90;99.90;;;;;;5046945;28;20204;-87
2022/03/08 05:15:04;;;;;;;31.40;15.93;;;-4.00;99.90;;;;;;5063746;28;20169;-88
2022/03/08 05:17:30;;;;;;;37.03;14.85;;;;;;;;;;5038696;28;20292;-82
2022/03/08 05:19:56;;;;;;;26.58;12.70;;;-3.90;99.90;;;;;;5055589;28;20280;-82
2022/03/08 05:22:22;;;;;;;47.30;21.43;;;;;;;;;;5050620;28;20232;-81
2022/03/08 05:24:48;;;;;;;32.17;15.90;;;-3.80;99.90;;;;;;5035887;28;20165;-83
2022/03/08 05:27:13;;;;;;;27.02;12.52;;;-3.80;99.90;;;;;;5053892;28;20542;-86
2022/03/08 05:29:39;;;;;;;29.93;12.23;;;-3.80;99.90;;;;;;5061869;28;20227;-87
2022/03/08 05:32:05;;;;;;;23.83;10.30;;;-3.90;99.90;;;;;;5032020;28;20209;-84
2022/03/08 05:34:31;;;;;;;24.13;12.40;;;-3.90;99.90;;;;;;5028540;28;20661;-85
2022/03/08 05:36:56;;;;;;;22.00;12.90;;;-3.80;99.90;;;;;;5032532;28;20231;-85
2022/03/08 05:39:22;;;;;;;21.17;11.33;;;-3.90;99.90;;;;;;5043678;28;20179;-83
2022/03/08 05:41:48;;;;;;;25.67;13.35;;;-4.30;99.90;;;;;;5030527;28;20190;-86
2022/03/08 05:44:14;;;;;;;22.80;11.30;;;-3.90;99.90;;;;;;5038375;28;20174;-85
2022/03/08 05:46:40;;;;;;;20.43;11.43;;;-4.00;99.90;;;;;;5054860;28;20181;-82
2022/03/08 05:49:06;;;;;;;18.77;10.40;;;-3.90;99.90;;;;;;5029246;28;20446;-81
2022/03/08 05:51:31;;;;;;;17.33;10.30;;;-3.90;99.90;;;;;;5033471;28;20663;-86
2022/03/08 05:53:57;;;;;;;20.15;11.63;;;-3.80;99.90;;;;;;5048448;28;20845;-86
2022/03/08 05:56:23;;;;;;;24.63;13.00;;;-3.80;99.90;;;;;;5038715;28;20469;-86
2022/03/08 05:58:48;;;;;;;21.77;12.73;;;-3.80;99.90;;;;;;5042334;28;20178;-85
2022/03/08 06:01:14;;;;;;;22.80;13.20;;;-3.80;99.90;;;;;;5026853;28;20236;-82
2022/03/08 06:03:39;;;;;;;16.57;11.40;;;-3.70;99.90;;;;;;5026637;28;20444;-85
2022/03/08 06:06:05;;;;;;;19.20;11.30;;;-3.60;99.90;;;;;;5029406;28;20212;-84
2022/03/08 06:08:30;;;;;;;19.93;12.83;;;-3.60;99.90;;;;;;5043224;28;20212;-84
2022/03/08 06:10:56;;;;;;;16.90;10.90;;;-3.50;99.90;;;;;;5026320;28;20206;-85
2022/03/08 06:13:22;;;;;;;14.50;10.07;;;-3.40;99.90;;;;;;5026435;28;20177;-85
2022/03/08 06:15:47;;;;;;;22.40;11.20;;;-3.30;99.90;;;;;;5023975;28;20638;-84
2022/03/08 06:18:13;;;;;;;29.50;14.90;;;-3.10;99.90;;;;;;5025183;28;20226;-86
2022/03/08 06:20:38;;;;;;;21.90;12.20;;;-0.90;99.90;;;;;;5020215;28;20184;-85
2022/03/08 06:23:04;;;;;;;23.83;12.07;;;-1.10;99.90;;;;;;5040588;28;20265;-84
2022/03/08 06:25:30;;;;;;;22.60;11.97;;;0.70;99.90;;;;;;5022963;28;20272;-84
2022/03/08 06:27:55;;;;;;;15.43;10.47;;;2.50;99.90;;;;;;5041798;28;20534;-86
2022/03/08 06:30:21;;;;;;;22.87;11.07;;;4.10;99.90;;;;;;5036266;28;20200;-84
2022/03/08 06:32:46;;;;;;;16.90;9.80;;;5.60;99.90;;;;;;5039398;28;20271;-83
2022/03/08 06:35:13;;;;;;;18.80;9.83;;;7.00;99.90;;;;;;5055769;28;20192;-84
2022/03/08 06:37:39;;;;;;;16.25;10.38;;;8.30;99.90;;;;;;5018689;28;20204;-85
2022/03/08 06:40:06;;;;;;;18.52;10.70;;;8.50;90.00;;;;;;5026301;28;21174;-85
2022/03/08 06:42:31;;;;;;;15.82;9.80;;;9.10;90.70;;;;;;5017821;28;20201;-83
2022/03/08 06:44:57;;;;;;;10.33;8.50;;;10.10;87.10;;;;;;5019021;28;20259;-84
2022/03/08 06:47:22;;;;;;;15.73;8.43;;;11.30;81.00;;;;;;5024709;28;20178;-84
2022/03/08 06:49:48;;;;;;;14.20;9.90;;;11.90;69.70;;;;;;5026290;28;20568;-83
2022/03/08 06:52:14;;;;;;;16.90;11.27;;;12.60;67.10;;;;;;5024350;28;20207;-83
2022/03/08 06:54:40;;;;;;;16.50;12.20;;;13.50;62.10;;;;;;5021402;28;20295;-83
2022/03/08 06:57:05;;;;;;;14.93;11.13;;;14.30;59.60;;;;;;5026761;28;20597;-85
2022/03/08 06:59:31;;;;;;;16.50;11.77;;;15.40;57.40;;;;;;5037646;28;20182;-85
2022/03/08 07:01:56;;;;;;;18.03;10.93;;;16.20;53.90;;;;;;5039884;28;20474;-84
2022/03/08 07:04:23;;;;;;;18.47;12.57;;;16.50;48.90;;;;;;5039876;28;20304;-84
2022/03/08 07:06:49;;;;;;;22.30;12.63;;;16.10;46.70;;;;;;5021771;28;20188;-85
2022/03/08 07:09:14;;;;;;;16.33;11.17;;;16.40;46.40;;;;;;5042488;28;20459;-83
2022/03/08 07:11:40;;;;;;;14.60;11.07;;;17.00;43.00;;;;;;5023781;28;20255;-85
2022/03/08 07:14:06;;;;;;;14.10;10.93;;;17.00;43.50;;;;;;5022646;28;20201;-85
2022/03/08 07:16:32;;;;;;;20.00;10.97;;;17.70;43.60;;;;;;5039043;28;20516;-84
2022/03/08 07:18:58;;;;;;;13.00;11.00;;;18.70;42.60;;;;;;5023817;28;20970;-86
2022/03/08 07:21:24;;;;;;;19.37;11.77;;;19.70;40.30;;;;;;5026161;28;20491;-80
2022/03/08 07:23:50;;;;;;;16.80;11.43;;;;;;;;;;5030445;28;20669;-84
2022/03/08 07:26:15;;;;;;;17.50;11.90;;;19.50;38.00;;;;;;5023700;28;20177;-85
2022/03/08 07:28:41;;;;;;;17.50;12.80;;;19.20;37.80;;;;;;5026341;28;20427;-82
2022/03/08 07:31:07;;;;;;;14.17;11.17;;;19.50;36.90;;;;;;5039867;28;20208;-84
2022/03/08 07:33:33;;;;;;;13.40;12.00;;;19.60;37.60;;;;;;5023005;28;20488;-83
2022/03/08 07:36:00;;;;;;;16.80;11.80;;;19.80;36.60;;;;;;5031087;28;20272;-85
2022/03/08 07:38:26;;;;;;;19.00;13.40;;;;;;;;;;5024120;28;20428;-83
2022/03/08 07:40:52;;;;;;;15.77;12.03;;;;;;;;;;5021492;28;20420;-82
2022/03/08 07:43:17;;;;;;;22.17;13.20;;;21.50;33.50;;;;;;5018407;28;20523;-86
2022/03/08 07:45:43;;;;;;;14.70;11.60;;;20.50;33.90;;;;;;5025470;28;21028;-85
2022/03/08 07:48:09;;;;;;;27.67;18.90;;;19.40;34.00;;;;;;5019624;28;20974;-84
2022/03/08 07:50:35;;;;;;;16.23;12.57;;;19.10;34.90;;;;;;5021159;28;20219;-85
2022/03/08 07:53:01;;;;;;;18.13;11.93;;;19.10;35.50;;;;;;5039793;28;20229;-86
2022/03/08 07:55:31;;;;;;;15.40;12.00;;;19.30;34.00;;;;;;5021262;28;20874;-82
2022/03/08 07:57:57;;;;;;;18.80;13.27;;;19.00;34.10;;;;;;5025210;28;21043;-83
2022/03/08 08:00:24;;;;;;;18.47;11.20;;;18.60;34.80;;;;;;5016579;28;20472;-86
2022/03/08 08:02:49;;;;;;;15.30;11.20;;;17.70;35.50;;;;;;5016982;28;20447;-81
2022/03/08 08:05:17;;;;;;;14.40;11.30;;;18.90;35.60;;;;;;5021124;28;20466;-83
2022/03/08 08:07:42;;;;;;;15.63;12.07;;;19.80;34.40;;;;;;5041354;28;20189;-87
2022/03/08 08:10:08;;;;;;;18.90;12.70;;;20.40;33.90;;;;;;5040094;28;20492;-82
2022/03/08 08:12:34;;;;;;;15.97;12.20;;;20.10;33.90;;;;;;5018210;28;20683;-83
2022/03/08 08:15:00;;;;;;;14.87;11.37;;;18.40;33.70;;;;;;5027343;28;20440;-84
2022/03/08 08:17:25;;;;;;;18.20;12.20;;;18.10;34.70;;;;;;5039434;28;20522;-84
2022/03/08 08:19:51;;;;;;;15.43;10.57;;;17.90;34.50;;;;;;5040018;28;20196;-83
2022/03/08 08:22:16;;;;;;;17.53;12.30;;;17.00;34.90;;;;;;5025858;28;20355;-83
2022/03/08 08:24:42;;;;;;;13.67;10.30;;;15.00;36.30;;;;;;5020147;28;20184;-83
2022/03/08 08:27:07;;;;;;;14.20;10.20;;;14.10;37.60;;;;;;5024964;28;20201;-86
2022/03/08 08:29:33;;;;;;;15.90;10.97;;;13.90;39.00;;;;;;5017564;28;20554;-82
2022/03/08 08:31:58;;;;;;;13.70;9.60;;;13.80;39.20;;;;;;5022441;28;20712;-86
2022/03/08 08:34:24;;;;;;;12.63;9.30;;;;;;;;;;5021331;28;20534;-83
2022/03/08 08:36:50;;;;;;;13.53;7.90;;;13.40;38.80;;;;;;5024353;28;20335;-84
2022/03/08 08:39:16;;;;;;;12.97;9.77;;;12.80;39.70;;;;;;5056381;28;20445;-85
2022/03/08 08:41:43;;;;;;;11.30;9.25;;;12.40;41.20;;;;;;5023095;28;20197;-82
2022/03/08 08:44:09;;;;;;;16.08;10.35;;;12.00;41.60;;;;;;5043666;28;20626;-84
2022/03/08 08:46:34;;;;;;;10.45;8.52;;;11.60;42.40;;;;;;5024721;28;20745;-82
2022/03/08 08:49:00;;;;;;;11.73;8.63;;;11.10;42.40;;;;;;5043561;28;20243;-84
2022/03/08 08:51:26;;;;;;;13.90;9.80;;;10.50;43.40;;;;;;5031966;28;20237;-86
2022/03/08 08:53:52;;;;;;;14.52;9.43;;;10.50;44.10;;;;;;5031687;28;20188;-85
2022/03/08 08:56:18;;;;;;;11.13;8.50;;;10.50;44.50;;;;;;5039538;28;20208;-81
2022/03/08 08:58:44;;;;;;;10.27;8.60;;;;;;;;;;5045923;28;20182;-84
2022/03/08 09:01:09;;;;;;;14.73;9.50;;;10.00;44.50;;;;;;5045005;28;20984;-84
2022/03/08 09:03:35;;;;;;;13.83;10.13;;;10.10;46.00;;;;;;5025253;28;20428;-84
2022/03/08 09:06:00;;;;;;;15.80;10.17;;;10.60;45.60;;;;;;5043231;28;20206;-86
2022/03/08 09:08:26;;;;;;;11.53;8.33;;;10.50;43.90;;;;;;5027775;28;20186;-86
2022/03/08 09:10:53;;;;;;;10.37;8.23;;;10.60;44.20;;;;;;5029760;28;20225;-86
2022/03/08 09:13:19;;;;;;;15.82;8.90;;;10.60;44.80;;;;;;5027537;28;20181;-85
2022/03/08 09:15:44;;;;;;;11.43;7.95;;;10.60;45.20;;;;;;5041075;28;20664;-84
2022/03/08 09:18:10;;;;;;;11.63;9.27;;;10.70;45.40;;;;;;5026812;28;20296;-83
2022/03/08 09:20:36;;;;;;;11.87;8.10;;;10.90;44.90;;;;;;5033130;28;20237;-84
2022/03/08 09:23:01;;;;;;;9.77;7.37;;;10.90;45.30;;;;;;5031637;28;20193;-84
2022/03/08 09:25:27;;;;;;;11.33;7.97;;;11.00;44.60;;;;;;5030624;28;20729;-85
2022/03/08 09:27:53;;;;;;;10.73;7.32;;;10.50;44.40;;;;;;5024167;28;20185;-84
2022/03/08 09:30:19;;;;;;;12.70;8.20;;;10.20;44.90;;;;;;5045770;28;20731;-85
2022/03/08 09:32:44;;;;;;;10.40;7.50;;;9.90;46.90;;;;;;5033192;28;20229;-84
2022/03/08 09:35:10;;;;;;;15.57;9.43;;;10.00;45.50;;;;;;5026416;28;20181;-84
2022/03/08 09:37:36;;;;;;;12.80;8.00;;;10.60;46.50;;;;;;5036934;28;20247;-81
2022/03/08 09:40:03;;;;;;;13.70;7.07;;;11.00;43.70;;;;;;5035489;28;20292;-83
2022/03/08 09:42:30;;;;;;;11.25;8.02;;;10.90;44.10;;;;;;5043150;28;20837;-86
2022/03/08 09:44:56;;;;;;;11.50;7.10;;;11.20;44.90;;;;;;5031162;28;20180;-84
2022/03/08 09:47:22;;;;;;;12.70;8.20;;;10.40;44.10;;;;;;5032781;28;20187;-85
2022/03/08 09:49:49;;;;;;;11.85;6.18;;;10.50;44.10;;;;;;5027213;28;20189;-82
2022/03/08 09:52:15;;;;;;;10.48;7.10;;;9.40;45.10;;;;;;5048109;28;20264;-83
2022/03/08 09:54:44;;;;;;;14.77;7.70;;;9.10;46.90;;;;;;5029892;28;20193;-83
2022/03/08 09:57:11;;;;;;;13.80;7.80;;;8.80;47.90;;;;;;5027796;28;20222;-83
2022/03/08 09:59:37;;;;;;;14.25;6.72;;;9.00;49.00;;;;;;5028919;28;20173;-85
2022/03/08 10:02:04;;;;;;;10.10;5.87;;;9.30;47.70;;;;;;5030372;28;20201;-84
2022/03/08 10:04:29;;;;;;;9.55;7.03;;;9.30;47.20;;;;;;5039261;28;20881;-84
2022/03/08 10:06:57;;;;;;;10.23;6.97;;;9.20;47.10;;;;;;5036340;28;20185;-83
2022/03/08 10:09:24;;;;;;;10.98;7.00;;;9.20;48.00;;;;;;5038362;28;20191;-83
2022/03/08 10:11:54;;;;;;;10.35;7.35;;;9.20;48.20;;;;;;5034736;28;20201;-84
2022/03/08 10:14:39;;;;;;;15.20;7.95;;;8.80;47.30;;;;;;5042983;28;20208;-86
2022/03/08 10:17:28;;;;;;;9.45;6.40;;;8.10;48.50;;;;;;5042396;28;20260;-83
2022/03/08 10:19:53;;;;;;;9.32;6.80;;;7.70;50.00;;;;;;5034623;28;20276;-84
2022/03/08 10:22:37;;;;;;;10.20;6.80;;;7.20;50.40;;;;;;5020750;28;20291;-85
2022/03/08 10:25:24;;;;;;;10.57;6.90;;;7.00;50.60;;;;;;5045592;28;20173;-82
2022/03/08 10:27:56;;;;;;;5.47;4.97;;;6.80;51.60;;;;;;5041616;28;20230;-85
2022/03/08 10:30:43;;;;;;;12.43;8.70;;;6.70;51.30;;;;;;5022235;28;20639;-82
2022/03/08 10:33:19;;;;;;;8.35;5.82;;;6.80;52.50;;;;;;5020066;28;20814;-85
2022/03/08 10:35:45;;;;;;;10.73;6.30;;;7.00;51.50;;;;;;5019107;28;20181;-83
2022/03/08 10:38:14;;;;;;;8.75;7.10;;;7.00;50.80;;;;;;5026892;28;20207;-85
2022/03/08 10:40:41;;;;;;;8.70;6.38;;;7.20;50.40;;;;;;5024969;28;20180;-82
2022/03/08 10:43:09;;;;;;;9.07;6.13;;;7.20;50.80;;;;;;5046847;28;20185;-85
2022/03/08 10:45:39;;;;;;;7.97;6.40;;;7.20;50.10;;;;;;5042790;28;20262;-82
2022/03/08 10:48:06;;;;;;;23.70;12.55;;;7.20;49.60;;;;;;5045153;28;20185;-85
2022/03/08 10:50:34;;;;;;;9.30;6.07;;;7.40;51.10;;;;;;5045712;28;20169;-83
2022/03/08 10:53:06;;;;;;;9.23;5.90;;;7.50;49.10;;;;;;5031785;28;20189;-86
2022/03/08 10:55:34;;;;;;;9.73;5.32;;;7.80;49.40;;;;;;5026958;28;20284;-82
2022/03/08 10:58:10;;;;;;;9.77;5.53;;;7.90;46.70;;;;;;5046766;28;20220;-87
2022/03/08 11:00:43;;;;;;;5.47;4.47;;;7.90;45.00;;;;;;5030680;28;20177;-83
2022/03/08 11:03:12;;;;;;;9.45;5.00;;;7.90;45.50;;;;;;5026819;28;20185;-84
2022/03/08 11:05:49;;;;;;;5.68;4.45;;;7.70;45.30;;;;;;5047167;28;20193;-82
2022/03/08 11:08:16;;;;;;;6.35;4.10;;;7.60;44.30;;;;;;5027420;28;20188;-83
2022/03/08 11:10:42;;;;;;;6.97;4.35;;;7.70;45.10;;;;;;5027091;28;20713;-82
2022/03/08 11:13:09;;;;;;;8.20;4.65;;;7.80;45.60;;;;;;5044920;28;20584;-84
2022/03/08 11:15:37;;;;;;;5.80;4.40;;;7.90;45.30;;;;;;5027589;28;20240;-84
2022/03/08 11:18:09;;;;;;;6.20;4.25;;;8.10;44.70;;;;;;5042661;28;20217;-83
2022/03/08 11:20:37;;;;;;;7.30;4.82;;;8.10;43.60;;;;;;5040822;28;20166;-82
2022/03/08 11:23:03;;;;;;;10.25;4.50;;;8.10;44.00;;;;;;5025847;28;20189;-84
2022/03/08 11:25:32;;;;;;;6.45;5.10;;;8.10;44.00;;;;;;5042724;28;21203;-85
2022/03/08 11:27:57;;;;;;;6.45;5.05;;;8.30;44.50;;;;;;5028100;28;20215;-85
2022/03/08 11:30:47;;;;;;;8.60;5.53;;;8.40;44.10;;;;;;5034436;28;20645;-86
2022/03/08 11:33:36;;;;;;;7.10;4.53;;;8.50;43.80;;;;;;5042629;28;20180;-85
2022/03/08 11:36:11;;;;;;;7.53;4.75;;;8.60;44.00;;;;;;5024162;28;20214;-86
2022/03/08 11:38:37;;;;;;;9.07;4.47;;;8.70;43.70;;;;;;5026587;28;20213;-85
2022/03/08 11:41:02;;;;;;;6.70;3.40;;;8.70;43.70;;;;;;5025079;28;20228;-83
2022/03/08 11:43:43;;;;;;;8.60;4.67;;;8.60;42.90;;;;;;5041562;28;20189;-85
2022/03/08 11:46:18;;;;;;;4.78;4.28;;;8.70;43.20;;;;;;5045194;28;20222;-86
2022/03/08 11:48:51;;;;;;;6.00;4.85;;;8.70;43.30;;;;;;5045106;28;20271;-84
2022/03/08 11:51:16;;;;;;;6.13;4.80;;;8.70;42.80;;;;;;5045009;28;20537;-82
2022/03/08 11:53:44;;;;;;;10.83;4.90;;;8.80;43.80;;;;;;5030046;28;20205;-85
2022/03/08 11:56:19;;;;;;;4.90;3.95;;;8.90;42.70;;;;;;5028079;28;20192;-84
2022/03/08 11:58:49;;;;;;;6.68;3.80;;;8.90;43.70;;;;;;5025094;28;20243;-84
2022/03/08 12:01:36;;;;;;;4.43;4.03;;;9.00;42.80;;;;;;5042611;28;20204;-86
2022/03/08 12:04:11;;;;;;;4.82;4.30;;;8.80;42.20;;;;;;5040095;28;20208;-85
2022/03/08 12:06:38;;;;;;;6.65;4.72;;;8.80;42.90;;;;;;5041237;28;20183;-86
2022/03/08 12:09:07;;;;;;;6.82;4.90;;;9.10;43.50;;;;;;5043037;28;20200;-85
2022/03/08 12:11:35;;;;;;;9.23;5.15;;;9.30;42.70;;;;;;5040553;28;20189;-83
2022/03/08 12:14:16;;;;;;;6.13;5.05;;;9.30;42.40;;;;;;5032115;28;20190;-80
2022/03/08 12:16:46;;;;;;;5.53;4.80;;;9.50;42.00;;;;;;5027834;28;20200;-82
2022/03/08 12:19:18;;;;;;;5.53;4.15;;;9.30;41.60;;;;;;5024899;28;20217;-83
2022/03/08 12:21:45;;;;;;;4.78;4.25;;;9.30;42.00;;;;;;5030233;28;20259;-84
2022/03/08 12:24:17;;;;;;;6.45;4.60;;;9.40;41.90;;;;;;5029257;28;20318;-82
2022/03/08 12:26:50;;;;;;;6.20;3.97;;;9.50;41.60;;;;;;5022506;28;20185;-86
2022/03/08 12:29:20;;;;;;;10.05;4.60;;;9.60;41.40;;;;;;5022528;28;20585;-85
2022/03/08 12:31:58;;;;;;;6.80;4.95;;;9.60;41.10;;;;;;5021405;28;20728;-85
2022/03/08 12:34:33;;;;;;;4.90;4.20;;;9.70;41.30;;;;;;5055914;28;20200;-85
2022/03/08 12:37:05;;;;;;;7.07;4.50;;;9.70;41.00;;;;;;5023751;28;20278;-83
2022/03/08 12:40:05;;;;;;;7.82;4.03;;;9.80;41.80;;;;;;5023374;28;20181;-85